Time;durP1;ratioP1;P1;durP2;ratioP2;P2;SDS_P1;SDS_P2;PMS_P1;PMS_P2;Temp;Humidity;BMP_temperature;BMP_pressure;BME280_temperature;BME280_humidity;BME280_pressure;Samples;Min_cycle;Max_cycle;Signal;HPM_P1;HPM_P2
2022/12/25 00:13:23;;;;;;;13.55;6.85;;;;;;;5.37;81.70;100373.84;30615729;28;96746;-71
2022/12/25 00:28:25;;;;;;;11.57;5.43;;;;;;;5.41;81.31;100391.97;30627831;28;96712;-76
2022/12/25 00:43:25;;;;;;;12.47;5.40;;;;;;;5.26;81.35;100398.56;30627679;28;96843;-76
2022/12/25 00:58:28;;;;;;;12.43;6.10;;;;;;;5.06;80.87;100402.91;30623240;28;96572;-77
2022/12/25 01:13:29;;;;;;;9.40;5.35;;;;;;;5.06;82.18;100437.22;30621388;28;97308;-76
2022/12/25 01:28:30;;;;;;;11.55;5.63;;;;;;;5.06;81.59;100443.34;30619766;28;96819;-75
2022/12/25 01:43:32;;;;;;;15.57;5.95;;;;;;;4.84;81.92;100449.56;30618603;28;97274;-70
2022/12/25 01:58:33;;;;;;;10.75;4.93;;;;;;;4.62;82.41;100436.44;30616370;28;98234;-73
2022/12/25 02:13:34;;;;;;;12.40;5.07;;;;;;;4.81;82.74;100441.06;30614840;28;96758;-76
2022/12/25 02:28:41;;;;;;;8.73;4.72;;;;;;;4.87;82.40;100451.13;30614673;28;97280;-76
2022/12/25 04:46:28;;;;;;;13.38;5.70;;;;;;;3.53;83.58;100539.00;30624064;28;96826;-70
2022/12/25 05:01:28;;;;;;;12.52;6.22;;;;;;;3.25;83.55;100538.41;30621035;28;96718;-70
2022/12/25 05:16:29;;;;;;;15.23;9.00;;;;;;;3.09;83.73;100551.91;30620064;28;96792;-71
2022/12/25 05:31:29;;;;;;;16.80;7.68;;;;;;;3.31;84.46;100574.00;30622750;28;97594;-70
2022/12/25 05:46:30;;;;;;;15.77;7.68;;;;;;;3.26;84.25;100589.31;30618633;28;96811;-71
2022/12/25 06:01:30;;;;;;;12.20;6.78;;;;;;;2.94;84.02;100588.06;30616370;28;97305;-75
2022/12/25 06:16:31;;;;;;;13.60;6.43;;;;;;;2.68;84.41;100611.81;30614339;28;97118;-70
2022/12/25 06:31:32;;;;;;;13.13;6.95;;;;;;;2.53;84.51;100632.16;30613565;28;96698;-76
2022/12/25 06:46:32;;;;;;;23.30;7.90;;;;;;;2.28;83.93;100658.47;30612734;28;97048;-75
2022/12/25 07:02:02;;;;;;;20.85;9.90;;;;;;;2.15;84.32;100650.59;30610621;28;97224;-76
2022/12/25 07:17:02;;;;;;;17.98;8.77;;;;;;;1.99;84.16;100651.59;30604151;28;96706;-75
2022/12/25 07:32:03;;;;;;;22.73;10.00;;;;;;;2.27;84.40;100667.28;30608836;28;96646;-76
2022/12/25 07:47:04;;;;;;;19.35;9.77;;;;;;;3.05;84.83;100672.34;30606917;28;96796;-76
2022/12/25 08:02:04;;;;;;;19.35;8.52;;;;;;;4.37;85.22;100678.50;30604616;28;97616;-73
2022/12/25 08:17:04;;;;;;;17.13;8.60;;;;;;;5.61;83.31;100679.31;30603536;28;96810;-76
2022/12/25 08:32:05;;;;;;;14.13;7.68;;;;;;;9.32;80.46;100690.41;30608235;28;96489;-76
2022/12/25 08:47:05;;;;;;;14.35;8.75;;;;;;;13.04;73.01;100706.66;30622285;28;96582;-74
2022/12/25 09:02:05;;;;;;;13.30;5.82;;;;;;;18.96;64.13;100714.47;30620966;28;97359;-73
2022/12/25 09:17:06;;;;;;;10.77;6.35;;;;;;;22.44;58.55;100738.03;30618842;28;97105;-77
2022/12/25 09:32:07;;;;;;;17.85;9.15;;;;;;;27.27;45.81;100725.69;30617657;28;96825;-77
2022/12/25 09:47:12;;;;;;;12.60;7.00;;;;;;;27.90;37.28;100717.34;30616163;28;97526;-76
2022/12/25 10:02:34;;;;;;;10.30;6.23;;;;;;;30.11;31.42;100712.84;30615871;28;96767;-76
2022/12/25 10:17:43;;;;;;;11.50;6.27;;;;;;;31.03;24.23;100700.06;30613941;28;97051;-73
2022/12/25 10:32:45;;;;;;;9.67;5.20;;;;;;;31.19;22.88;100681.41;30613857;28;96759;-77
2022/12/25 10:47:46;;;;;;;8.93;5.27;;;;;;;31.79;21.42;100657.91;30611641;28;96810;-76
2022/12/25 11:02:47;;;;;;;9.40;3.97;;;;;;;32.15;19.91;100646.28;30609472;28;96802;-74
2022/12/25 11:17:48;;;;;;;9.43;4.63;;;;;;;34.64;18.53;100608.78;30608764;28;96828;-77
2022/12/25 11:32:54;;;;;;;9.77;4.73;;;;;;;35.99;16.67;100601.38;30608128;28;96739;-74
2022/12/25 11:48:01;;;;;;;9.33;4.93;;;;;;;34.04;17.76;100603.56;30607782;28;97300;-75
2022/12/25 12:03:34;;;;;;;11.30;4.87;;;;;;;34.03;17.88;100587.31;30608167;28;96801;-74
2022/12/25 12:18:35;;;;;;;9.50;4.50;;;;;;;32.21;18.32;100580.84;30625126;28;98206;-75
2022/12/25 12:33:41;;;;;;;9.02;4.82;;;;;;;33.80;18.54;100579.09;30624909;28;96598;-74
2022/12/25 12:48:45;;;;;;;9.90;4.10;;;;;;;33.95;18.28;100569.56;30623311;28;96927;-73
2022/12/25 13:03:51;;;;;;;8.43;4.60;;;;;;;31.59;19.55;100575.63;30622259;28;96628;-71
2022/12/25 13:18:54;;;;;;;11.30;4.40;;;;;;;26.13;23.82;100558.53;30619277;28;96670;-72
2022/12/25 13:34:01;;;;;;;16.33;7.77;;;;;;;16.56;36.20;100561.31;30618677;28;97053;-73
2022/12/25 13:49:01;;;;;;;9.50;4.40;;;;;;;16.00;40.06;100518.47;30616718;28;96759;-72
2022/12/25 14:04:02;;;;;;;12.95;5.97;;;;;;;14.02;42.53;100499.97;30616290;28;97239;-74
2022/12/25 14:19:02;;;;;;;12.57;7.40;;;;;;;11.24;47.90;100527.03;30613492;28;96828;-73
2022/12/25 14:34:06;;;;;;;14.43;6.43;;;;;;;9.53;53.02;100520.88;30613284;28;96730;-72
2022/12/25 14:49:21;;;;;;;;;;;;;;;8.75;56.08;100531.16;30613550;28;96730;-72
2022/12/25 15:04:22;;;;;;;14.97;7.40;;;;;;;8.22;58.04;100497.34;30612587;28;96725;-71
2022/12/25 15:19:29;;;;;;;19.50;9.40;;;;;;;7.77;60.18;100507.69;30608740;28;97470;-75
2022/12/25 15:34:31;;;;;;;16.40;7.83;;;;;;;7.43;61.27;100504.72;30607686;28;96724;-74
2022/12/25 15:49:31;;;;;;;17.15;9.02;;;;;;;7.18;61.81;100475.19;30624721;28;96648;-75
2022/12/25 16:04:32;;;;;;;23.30;10.82;;;;;;;7.06;62.82;100490.38;30627843;28;96674;-76
2022/12/25 16:19:32;;;;;;;20.67;10.43;;;;;;;6.94;63.92;100462.38;30629287;28;97174;-75
2022/12/25 16:34:33;;;;;;;20.30;10.20;;;;;;;6.74;65.69;100425.31;30623151;28;97325;-75
2022/12/25 16:49:34;;;;;;;28.67;12.05;;;;;;;6.54;66.46;100415.69;30621393;28;96709;-76
2022/12/25 17:04:34;;;;;;;28.50;10.77;;;;;;;6.42;67.25;100421.13;30620154;28;97574;-73
2022/12/25 17:19:35;;;;;;;27.23;12.38;;;;;;;6.34;67.83;100404.25;30618430;28;96771;-75
2022/12/25 17:34:37;;;;;;;24.67;11.82;;;;;;;6.23;68.38;100374.31;30617698;28;96975;-74
2022/12/25 17:49:37;;;;;;;22.80;11.77;;;;;;;6.17;69.20;100382.78;30615446;28;97086;-74
2022/12/25 18:04:37;;;;;;;27.80;13.27;;;;;;;6.13;69.70;100360.22;30615288;28;96651;-73
2022/12/25 18:19:38;;;;;;;27.80;15.05;;;;;;;6.09;69.88;100341.13;30614892;28;96704;-71
2022/12/25 18:34:38;;;;;;;33.65;15.38;;;;;;;6.01;70.19;100316.34;30615385;28;96798;-75
2022/12/25 18:49:39;;;;;;;33.17;13.07;;;;;;;5.93;71.19;100306.41;30611460;28;96666;-72
2022/12/25 19:04:42;;;;;;;27.98;15.35;;;;;;;5.89;71.92;100283.88;30610537;28;96641;-73
2022/12/25 19:19:42;;;;;;;34.50;15.97;;;;;;;5.88;72.11;100253.13;30607475;28;96982;-73
2022/12/25 19:34:43;;;;;;;33.88;15.57;;;;;;;5.93;72.36;100245.59;30607460;28;97332;-71
2022/12/25 19:49:43;;;;;;;33.10;15.65;;;;;;;5.92;72.95;100238.66;30606068;28;96764;-75
2022/12/25 20:04:44;;;;;;;36.38;17.00;;;;;;;5.84;72.66;100209.44;30604579;28;96701;-74
2022/12/25 20:19:44;;;;;;;31.77;16.67;;;;;;;5.72;73.00;100169.91;30601810;28;98272;-72
2022/12/25 20:34:44;;;;;;;24.83;12.98;;;;;;;5.65;73.93;100194.41;30621010;28;97050;-76
2022/12/25 20:49:46;;;;;;;20.58;9.88;;;;;;;5.68;74.16;100173.81;30623484;28;96890;-77
2022/12/25 21:04:46;;;;;;;19.48;9.38;;;;;;;5.50;74.33;100149.06;30622627;28;96552;-77
2022/12/25 21:19:46;;;;;;;21.05;8.82;;;;;;;5.55;74.75;100125.66;30623031;28;96807;-75
2022/12/25 21:34:47;;;;;;;15.80;8.07;;;;;;;5.62;75.71;100107.44;30620058;28;96690;-73
2022/12/25 22:05:06;;;;;;;16.00;7.47;;;;;;;5.71;76.20;100131.25;30616337;28;96670;-76
2022/12/25 22:20:10;;;;;;;17.65;8.45;;;;;;;5.80;76.04;100104.94;30615097;28;96681;-75
2022/12/25 22:35:11;;;;;;;15.10;8.80;;;;;;;5.78;76.40;100096.31;30614088;28;96780;-72
2022/12/25 22:50:13;;;;;;;17.05;8.88;;;;;;;5.81;76.48;100045.78;30612749;28;96693;-72
2022/12/25 23:05:14;;;;;;;17.38;9.00;;;;;;;5.87;77.41;100013.50;30612672;28;97580;-75
2022/12/25 23:35:33;;;;;;;16.83;8.73;;;;;;;6.15;77.06;100021.50;30611218;28;96741;-75
2022/12/25 23:50:33;;;;;;;19.67;8.73;;;;;;;6.30;77.12;100011.28;30608788;28;96649;-72
